New Bedford, MA (02740)

9:34 PM EDT on September 03, 2015 (GMT -0400)
Peedee's Weather | | Change Station
CLOSE
Current Station
Personal Weather Station
Location: New Bedford, MA
Elevation: 130 ft
Nearby Weather Stations

Elev 130 ft 41.65 °N, 70.94 °W | Updated 1 minute ago

Clear
Clear
75.4 °F
Feels Like 76 °F
N
0.0
Wind Variable Wind from SE

Today
High -- | Low -- °F
--% Chance of Precip.
Yesterday
High -- | Low -- °F
Precip. -- in
6:11 AM 7:14 PM
Waning Gibbous, 65% visible
Pressure 29.87 in
Visibility 9.0 miles
Clouds Clear
Heat Index 76 °F
Dew Point 70 °F
Humidity 83%
Rainfall 0.00 in
Snow Depth Not available.
UV 0 out of 12
Pollen 7.90 out of 12
Air Quality Not available.
Flu Activity Not available.
METAR KEWB 040053Z 00000KT 9SM CLR 23/22 A2987 RMK AO2 SLP113 T02280217
Pressure 29.87 in
Visibility 9.0 miles
Clouds Clear
Heat Index 76 °F
Dew Point 70 °F
Humidity 83%
Rainfall 0.00 in
Snow Depth Not available.
UV 0 out of 12
Pollen 7.90 out of 12
Air Quality Not available.
Flu Activity Not available.
METAR KEWB 040053Z 00000KT 9SM CLR 23/22 A2987 RMK AO2 SLP113 T02280217

10-Day Weather Forecast

×

Almanac

Astronomy

Sep. 03, 2015 Rise Set
Actual Time
Civil Twilight
Nautical Twilight
Astronomical Twilight
Moon
Length of Visible Light
Length of Day
Tomorrow will be .
, % of the Moon is Illuminated

Today's Extremes

State Highs State Lows

Community

WunderPhotos

Upload Photos

1,852,086 photos uploaded!

WunderBlogs® & News

Nearby

Air Quality

  Air Quality AQ Index Pollutant
Not available.

Snow Depth

Station Depth Elevation

Earthquake Activity

City Distance Mag. Time & Date
Minimum magnitude displayed is 2.5.

Coastal Water Temperatures

Place Temperature

Stations

Nearby Weather Stations

Station Location Temp. Windchill Dew Point Humidity Wind Precip. Elev Updated Type